createdAt,value
2016-10-26T00:00:30.178Z,22.69
2016-10-26T00:01:42.647Z,22.67
2016-10-26T00:02:54.656Z,22.67
2016-10-26T00:04:08.261Z,22.61
2016-10-26T00:05:21.153Z,22.61
2016-10-26T00:06:33.582Z,22.6
2016-10-26T00:07:46.733Z,22.57
2016-10-26T00:08:59.668Z,22.6
2016-10-26T00:10:13.195Z,22.61
2016-10-26T00:11:26.091Z,22.59
2016-10-26T00:12:38.008Z,22.54
2016-10-26T00:13:50.469Z,22.54
2016-10-26T00:15:02.939Z,22.52
2016-10-26T00:16:15.361Z,22.55
2016-10-26T00:17:27.264Z,22.6
2016-10-26T00:18:40.950Z,22.59
2016-10-26T00:19:54.422Z,22.55
2016-10-26T00:21:06.977Z,22.57
2016-10-26T00:22:20.002Z,22.59
2016-10-26T00:23:32.453Z,22.52
2016-10-26T00:24:45.066Z,22.55
2016-10-26T00:25:57.511Z,22.59
2016-10-26T00:27:09.922Z,22.55
2016-10-26T00:28:22.021Z,22.57
2016-10-26T00:29:34.635Z,22.57
2016-10-26T00:30:48.111Z,22.57
2016-10-26T00:32:01.662Z,22.57
2016-10-26T00:33:15.174Z,22.54
2016-10-26T00:34:28.108Z,22.55
2016-10-26T00:35:41.739Z,22.6
2016-10-26T00:36:54.221Z,22.59
2016-10-26T00:38:07.210Z,22.55
2016-10-26T00:39:19.677Z,22.59
2016-10-26T00:40:33.230Z,22.54
2016-10-26T00:41:45.146Z,22.54
2016-10-26T00:42:58.625Z,22.57
2016-10-26T00:44:12.047Z,22.57
2016-10-26T00:45:25.057Z,22.64
2016-10-26T00:46:38.698Z,22.57
2016-10-26T00:47:52.171Z,22.55
2016-10-26T00:49:05.088Z,22.6
2016-10-26T00:50:18.615Z,22.54
2016-10-26T00:51:30.635Z,22.46
2016-10-26T00:52:43.067Z,22.44
2016-10-26T00:53:55.560Z,22.49
2016-10-26T00:55:07.993Z,22.49
2016-10-26T00:56:21.398Z,22.49
2016-10-26T00:57:33.400Z,22.48
2016-10-26T00:58:46.878Z,22.45
2016-10-26T01:00:00.373Z,22.48
2016-10-26T01:01:12.806Z,22.48
2016-10-26T01:02:26.466Z,22.45
2016-10-26T01:03:39.415Z,22.45
2016-10-26T01:04:52.920Z,22.48
2016-10-26T01:06:05.354Z,22.45
2016-10-26T01:07:18.764Z,22.49
2016-10-26T01:08:32.369Z,22.41
2016-10-26T01:09:44.887Z,22.54
2016-10-26T01:10:58.389Z,22.48
2016-10-26T01:12:11.408Z,22.51
2016-10-26T01:13:24.016Z,22.46
2016-10-26T01:14:37.100Z,22.54
2016-10-26T01:15:50.606Z,22.45
2016-10-26T01:17:04.244Z,22.46
2016-10-26T01:18:17.199Z,22.39
2016-10-26T01:19:30.404Z,22.39
2016-10-26T01:20:42.322Z,22.39
2016-10-26T01:21:55.813Z,22.41
2016-10-26T01:23:08.342Z,22.51
2016-10-26T01:24:20.996Z,22.51
2016-10-26T01:25:32.996Z,22.41
2016-10-26T01:26:46.582Z,22.44
2016-10-26T01:27:58.557Z,22.38
2016-10-26T01:29:12.150Z,22.34
2016-10-26T01:30:25.152Z,22.36
2016-10-26T01:31:38.118Z,22.39
2016-10-26T01:32:51.591Z,22.36
2016-10-26T01:34:03.522Z,22.38
2016-10-26T01:35:16.676Z,22.36
2016-10-26T01:36:29.185Z,22.36
2016-10-26T01:37:41.664Z,22.34
2016-10-26T01:38:53.076Z,22.34
2016-10-26T01:40:06.625Z,22.38
2016-10-26T01:41:18.245Z,22.36
2016-10-26T01:42:31.281Z,22.36
2016-10-26T01:43:43.757Z,22.24
2016-10-26T01:44:56.241Z,22.23
2016-10-26T01:46:08.959Z,22.3
2016-10-26T01:47:21.381Z,22.24
2016-10-26T01:48:33.288Z,22.26
2016-10-26T01:49:46.312Z,22.23
2016-10-26T01:50:59.362Z,22.24
2016-10-26T01:52:11.033Z,22.31
2016-10-26T01:53:24.087Z,22.2
2016-10-26T01:54:37.605Z,22.27
2016-10-26T01:55:51.251Z,22.23
2016-10-26T01:57:04.387Z,22.29
2016-10-26T01:58:17.451Z,22.22
2016-10-26T01:59:31.051Z,22.23
2016-10-26T02:00:43.548Z,22.2
2016-10-26T02:01:55.534Z,22.22
2016-10-26T02:03:07.491Z,22.23
2016-10-26T02:04:19.970Z,22.24
2016-10-26T02:05:33.088Z,22.2
2016-10-26T02:06:45.613Z,22.24
2016-10-26T02:07:58.787Z,22.18
2016-10-26T02:09:11.738Z,22.34
2016-10-26T02:10:25.255Z,22.24
2016-10-26T02:11:37.250Z,22.26
2016-10-26T02:12:49.743Z,22.22
2016-10-26T02:14:02.241Z,22.23
2016-10-26T02:15:14.826Z,22.26
2016-10-26T02:16:26.225Z,22.15
2016-10-26T02:17:39.224Z,22.16
2016-10-26T02:18:51.286Z,22.2
2016-10-26T02:20:04.878Z,22.22
2016-10-26T02:21:16.887Z,22.16
2016-10-26T02:22:28.866Z,22.2
2016-10-26T02:23:40.750Z,22.14
2016-10-26T02:24:54.459Z,22.24
2016-10-26T02:26:07.465Z,22.2
2016-10-26T02:27:19.986Z,22.18
2016-10-26T02:28:32.995Z,22.2
2016-10-26T02:29:46.125Z,22.08
2016-10-26T02:30:59.110Z,22.12
2016-10-26T02:32:11.637Z,22.11
2016-10-26T02:33:24.563Z,22.12
2016-10-26T02:34:38.111Z,22.09
2016-10-26T02:35:50.557Z,22.14
2016-10-26T02:37:03.580Z,22.05
2016-10-26T02:38:16.618Z,22.22
2016-10-26T02:39:30.134Z,22.08
2016-10-26T02:40:43.333Z,22.12
2016-10-26T02:41:56.333Z,22.09
2016-10-26T02:43:09.358Z,22.14
2016-10-26T02:44:22.400Z,22.09
2016-10-26T02:45:35.416Z,22.08
2016-10-26T02:46:49.041Z,22.16
2016-10-26T02:48:02.027Z,22.11
2016-10-26T02:49:14.469Z,22.12
2016-10-26T02:50:27.577Z,22.12
2016-10-26T02:51:40.167Z,22.2
2016-10-26T02:52:53.151Z,22.12
2016-10-26T02:54:06.736Z,22.08
2016-10-26T02:55:19.739Z,22.15
2016-10-26T02:56:32.768Z,22.08
2016-10-26T02:57:45.730Z,22.15
2016-10-26T02:58:58.273Z,22.15
2016-10-26T03:00:11.429Z,22.15
2016-10-26T03:01:23.884Z,22.15
2016-10-26T03:02:37.000Z,22.23
2016-10-26T03:03:49.040Z,22.18
2016-10-26T03:05:02.657Z,22.2
2016-10-26T03:06:15.672Z,22.22
2016-10-26T03:07:28.149Z,22.16
2016-10-26T03:08:40.652Z,22.22
2016-10-26T03:09:54.242Z,22.26
2016-10-26T03:11:06.661Z,22.14
2016-10-26T03:12:19.636Z,22.22
2016-10-26T03:13:33.289Z,22.22
2016-10-26T03:14:45.268Z,22.2
2016-10-26T03:15:58.238Z,22.18
2016-10-26T03:17:10.751Z,22.2
2016-10-26T03:18:22.685Z,22.16
2016-10-26T03:19:36.311Z,22.26
2016-10-26T03:20:49.845Z,22.24
2016-10-26T03:22:03.330Z,22.2
2016-10-26T03:23:15.260Z,22.24
2016-10-26T03:24:27.281Z,22.22
2016-10-26T03:25:39.234Z,22.2
2016-10-26T03:26:52.251Z,22.16
2016-10-26T03:28:04.735Z,22.2
2016-10-26T03:29:17.208Z,22.23
2016-10-26T03:30:29.817Z,22.14
2016-10-26T03:31:43.360Z,22.18
2016-10-26T03:32:55.849Z,22.16
2016-10-26T03:34:08.843Z,22.18
2016-10-26T03:35:21.932Z,22.16
2016-10-26T03:36:35.471Z,22.15
2016-10-26T03:37:48.412Z,22.26
2016-10-26T03:39:01.408Z,22.24
2016-10-26T03:40:14.388Z,22.22
2016-10-26T03:41:28.071Z,22.2
2016-10-26T03:42:41.119Z,22.23
2016-10-26T03:43:53.056Z,22.24
2016-10-26T03:45:05.035Z,22.26
2016-10-26T03:46:17.656Z,22.2
2016-10-26T03:47:30.119Z,22.23
2016-10-26T03:48:43.736Z,22.24
2016-10-26T03:49:56.349Z,22.22
2016-10-26T03:51:09.353Z,22.29
2016-10-26T03:52:22.566Z,22.18
2016-10-26T03:53:35.557Z,22.23
2016-10-26T03:54:49.098Z,22.23
2016-10-26T03:56:02.719Z,22.26
2016-10-26T03:57:14.893Z,22.27
2016-10-26T03:58:27.373Z,22.24
2016-10-26T03:59:40.405Z,22.24
2016-10-26T04:00:52.919Z,22.22
2016-10-26T04:02:05.917Z,22.3
2016-10-26T04:03:18.534Z,22.23
2016-10-26T04:04:31.563Z,22.24
2016-10-26T04:05:44.580Z,22.26
2016-10-26T04:06:58.115Z,22.24
2016-10-26T04:08:10.745Z,22.27
2016-10-26T04:09:24.342Z,22.23
2016-10-26T04:10:37.682Z,22.23
2016-10-26T04:11:50.366Z,22.23
2016-10-26T04:13:02.946Z,22.23
2016-10-26T04:14:16.578Z,22.23
2016-10-26T04:15:29.195Z,22.24
2016-10-26T04:16:41.873Z,22.26
2016-10-26T04:17:54.863Z,22.18
2016-10-26T04:19:08.017Z,22.27
2016-10-26T04:20:21.543Z,22.23
2016-10-26T04:21:34.636Z,22.18
2016-10-26T04:22:47.655Z,22.22
2016-10-26T04:24:00.107Z,22.22
2016-10-26T04:25:12.640Z,22.27
2016-10-26T04:26:25.681Z,22.27
2016-10-26T04:27:38.704Z,22.24
2016-10-26T04:28:51.731Z,22.24
2016-10-26T04:30:04.525Z,22.22
2016-10-26T04:31:17.534Z,22.24
2016-10-26T04:32:30.512Z,22.27
2016-10-26T04:33:43.504Z,22.24
2016-10-26T04:34:56.052Z,22.26
2016-10-26T04:36:09.121Z,22.23
2016-10-26T04:37:22.085Z,22.26
2016-10-26T04:38:35.184Z,22.24
2016-10-26T04:39:47.962Z,22.3
2016-10-26T04:41:01.242Z,22.3
2016-10-26T04:42:14.798Z,22.34
2016-10-26T04:43:27.301Z,22.23
2016-10-26T04:44:39.837Z,22.18
2016-10-26T04:45:52.424Z,22.24
2016-10-26T04:47:04.403Z,22.31
2016-10-26T04:48:15.878Z,22.23
2016-10-26T04:49:28.420Z,22.34
2016-10-26T04:50:40.411Z,22.34
2016-10-26T04:51:53.597Z,22.22
2016-10-26T04:53:06.088Z,22.33
2016-10-26T04:54:19.649Z,22.24
2016-10-26T04:55:32.680Z,22.18
2016-10-26T04:56:45.248Z,22.23
2016-10-26T04:57:58.854Z,22.24
2016-10-26T04:59:11.882Z,22.3
2016-10-26T05:00:24.473Z,22.26
2016-10-26T05:01:38.213Z,22.36
2016-10-26T05:02:51.345Z,22.36
2016-10-26T05:04:04.893Z,22.24
2016-10-26T05:05:17.906Z,22.24
2016-10-26T05:06:30.592Z,22.22
2016-10-26T05:07:43.859Z,22.33
2016-10-26T05:08:57.057Z,22.24
2016-10-26T05:10:10.560Z,22.24
2016-10-26T05:11:23.067Z,22.2
2016-10-26T05:12:35.548Z,22.23
2016-10-26T05:13:48.260Z,22.23
2016-10-26T05:15:01.683Z,22.27
2016-10-26T05:16:14.686Z,22.16
2016-10-26T05:17:27.321Z,22.29
2016-10-26T05:18:39.840Z,22.24
2016-10-26T05:19:53.494Z,22.24
2016-10-26T05:21:06.076Z,22.2
2016-10-26T05:22:18.580Z,22.16
2016-10-26T05:23:32.273Z,22.12
2016-10-26T05:24:45.095Z,21.97
2016-10-26T05:25:58.164Z,22.02
2016-10-26T05:27:11.724Z,22.05
2016-10-26T05:28:22.654Z,21.99
2016-10-26T05:29:35.178Z,21.96
2016-10-26T05:30:47.808Z,21.92
2016-10-26T05:32:00.981Z,21.9
2016-10-26T05:33:13.517Z,21.9
2016-10-26T05:34:26.545Z,21.85
2016-10-26T05:35:39.333Z,21.85
2016-10-26T05:36:52.440Z,21.83
2016-10-26T05:38:06.052Z,21.67
2016-10-26T05:39:19.588Z,21.78
2016-10-26T05:40:32.217Z,21.74
2016-10-26T05:41:45.538Z,21.66
2016-10-26T05:42:59.086Z,21.56
2016-10-26T05:44:12.079Z,21.58
2016-10-26T05:45:24.102Z,21.56
2016-10-26T05:46:37.306Z,21.51
2016-10-26T05:47:50.273Z,21.52
2016-10-26T05:49:02.762Z,21.53
2016-10-26T05:50:15.893Z,21.52
2016-10-26T05:51:27.868Z,21.51
2016-10-26T05:52:39.875Z,21.38
2016-10-26T05:53:52.997Z,21.4
2016-10-26T05:55:05.517Z,21.45
2016-10-26T05:56:17.968Z,21.38
2016-10-26T05:57:31.608Z,21.4
2016-10-26T05:58:44.607Z,21.41
2016-10-26T05:59:57.595Z,21.3
2016-10-26T06:01:09.584Z,21.38
2016-10-26T06:02:23.073Z,21.37
2016-10-26T06:03:36.604Z,21.4
2016-10-26T06:04:50.294Z,21.27
2016-10-26T06:06:02.611Z,21.25
2016-10-26T06:07:15.709Z,21.41
2016-10-26T06:08:28.931Z,21.31
2016-10-26T06:09:41.928Z,21.36
2016-10-26T06:10:55.016Z,21.3
2016-10-26T06:12:08.222Z,21.31
2016-10-26T06:13:21.223Z,21.31
2016-10-26T06:14:34.465Z,21.3
2016-10-26T06:15:47.990Z,21.27
2016-10-26T06:17:01.612Z,21.25
2016-10-26T06:18:14.612Z,21.27
2016-10-26T06:19:28.248Z,21.28
2016-10-26T06:20:41.319Z,21.3
2016-10-26T06:21:54.881Z,21.33
2016-10-26T06:23:07.897Z,21.36
2016-10-26T06:24:20.845Z,21.33
2016-10-26T06:25:34.073Z,21.31
2016-10-26T06:26:47.123Z,21.37
2016-10-26T06:28:00.111Z,21.4
2016-10-26T06:29:13.052Z,21.33
2016-10-26T06:30:25.261Z,21.34
2016-10-26T06:31:37.790Z,21.33
2016-10-26T06:32:50.280Z,21.28
2016-10-26T06:34:03.882Z,21.38
2016-10-26T06:35:17.463Z,21.46
2016-10-26T06:36:29.934Z,21.4
2016-10-26T06:37:42.962Z,21.33
2016-10-26T06:38:54.389Z,21.45
2016-10-26T06:40:07.428Z,21.51
2016-10-26T06:41:21.152Z,21.34
2016-10-26T06:42:33.638Z,21.4
2016-10-26T06:43:46.104Z,21.36
2016-10-26T06:44:59.084Z,21.38
2016-10-26T06:46:12.578Z,21.41
2016-10-26T06:47:26.114Z,21.38
2016-10-26T06:48:39.149Z,21.43
2016-10-26T06:49:52.115Z,21.46
2016-10-26T06:51:04.695Z,21.43
2016-10-26T06:52:18.465Z,21.43
2016-10-26T06:53:32.061Z,21.4
2016-10-26T06:54:44.513Z,21.46
2016-10-26T06:55:56.988Z,21.45
2016-10-26T06:57:09.364Z,21.45
2016-10-26T06:58:36.265Z,21.48
2016-10-26T06:59:48.713Z,21.41
2016-10-26T07:01:01.687Z,21.52
2016-10-26T07:02:14.829Z,21.49
2016-10-26T07:03:27.322Z,21.46
2016-10-26T07:04:39.810Z,21.55
2016-10-26T07:05:52.244Z,21.55
2016-10-26T07:07:05.301Z,21.53
2016-10-26T07:08:18.942Z,21.52
2016-10-26T07:09:30.899Z,21.53
2016-10-26T07:10:43.471Z,21.55
2016-10-26T07:11:56.150Z,21.62
2016-10-26T07:13:09.215Z,21.55
2016-10-26T07:14:21.750Z,21.62
2016-10-26T07:15:34.261Z,21.64
2016-10-26T07:16:46.763Z,21.53
2016-10-26T07:17:59.862Z,21.67
2016-10-26T07:19:13.089Z,21.61
2016-10-26T07:20:26.041Z,21.55
2016-10-26T07:21:38.977Z,21.66
2016-10-26T07:22:51.940Z,21.53
2016-10-26T07:24:04.958Z,21.68
2016-10-26T07:25:16.879Z,21.58
2016-10-26T07:26:29.334Z,21.71
2016-10-26T07:27:41.861Z,21.67
2016-10-26T07:28:55.392Z,21.62
2016-10-26T07:30:08.541Z,21.61
2016-10-26T07:31:21.544Z,21.67
2016-10-26T07:32:35.037Z,21.66
2016-10-26T07:33:48.553Z,21.7
2016-10-26T07:34:59.981Z,21.67
2016-10-26T07:36:13.006Z,21.59
2016-10-26T07:37:25.976Z,21.67
2016-10-26T07:38:37.403Z,21.68
2016-10-26T07:39:49.868Z,21.58
2016-10-26T07:41:02.999Z,21.66
2016-10-26T07:42:16.555Z,21.59
2016-10-26T07:43:29.600Z,21.55
2016-10-26T07:44:43.133Z,21.59
2016-10-26T07:45:56.170Z,21.67
2016-10-26T07:47:09.773Z,21.71
2016-10-26T07:48:23.343Z,21.58
2016-10-26T07:49:36.360Z,21.67
2016-10-26T07:50:49.866Z,21.55
2016-10-26T07:52:02.987Z,21.64
2016-10-26T07:53:15.998Z,21.64
2016-10-26T07:54:27.896Z,21.61
2016-10-26T07:55:40.351Z,21.56
2016-10-26T07:56:53.355Z,21.53
2016-10-26T07:58:06.437Z,21.51
2016-10-26T07:59:19.494Z,21.51
2016-10-26T08:00:32.018Z,21.51
2016-10-26T08:01:45.073Z,21.49
2016-10-26T08:02:58.214Z,21.51
2016-10-26T08:04:10.741Z,21.52
2016-10-26T08:05:22.684Z,21.51
2016-10-26T08:06:35.178Z,21.46
2016-10-26T08:07:48.663Z,21.51
2016-10-26T08:09:01.290Z,21.43
2016-10-26T08:10:13.239Z,21.45
2016-10-26T08:11:26.712Z,21.41
2016-10-26T08:12:39.210Z,21.41
2016-10-26T08:13:52.322Z,21.38
2016-10-26T08:15:05.505Z,21.45
2016-10-26T08:16:19.078Z,21.38
2016-10-26T08:17:31.745Z,21.41
2016-10-26T08:18:44.203Z,21.41
2016-10-26T08:19:58.004Z,21.41
2016-10-26T08:21:11.561Z,21.43
2016-10-26T08:22:24.541Z,21.41
2016-10-26T08:23:38.112Z,21.37
2016-10-26T08:24:50.791Z,21.43
2016-10-26T08:26:03.820Z,21.43
2016-10-26T08:27:17.391Z,21.45
2016-10-26T08:28:30.422Z,21.4
2016-10-26T08:29:42.910Z,21.41
2016-10-26T08:30:55.425Z,21.41
2016-10-26T08:32:07.942Z,21.51
2016-10-26T08:33:21.525Z,21.55
2016-10-26T08:34:33.497Z,21.55
2016-10-26T08:35:46.632Z,21.61
2016-10-26T08:37:00.141Z,21.56
2016-10-26T08:38:13.660Z,21.48
2016-10-26T08:39:26.590Z,21.67
2016-10-26T08:40:39.612Z,21.62
2016-10-26T08:41:52.653Z,21.59
2016-10-26T08:43:05.198Z,21.66
2016-10-26T08:44:17.686Z,21.68
2016-10-26T08:45:30.122Z,21.7
2016-10-26T08:46:41.650Z,21.67
2016-10-26T08:47:54.690Z,21.7
2016-10-26T08:49:07.252Z,21.71
2016-10-26T08:50:20.272Z,21.71
2016-10-26T08:51:33.352Z,21.71
2016-10-26T08:52:45.864Z,21.64
2016-10-26T08:53:59.005Z,21.83
2016-10-26T08:55:12.055Z,21.76
2016-10-26T08:56:24.223Z,21.8
2016-10-26T08:57:37.374Z,21.82
2016-10-26T08:58:50.880Z,21.93
2016-10-26T09:00:03.875Z,21.85
2016-10-26T09:01:17.384Z,21.86
2016-10-26T09:02:29.916Z,21.83
2016-10-26T09:03:43.006Z,21.94
2016-10-26T09:04:55.674Z,21.92
2016-10-26T09:06:08.177Z,21.99
2016-10-26T09:07:21.230Z,21.93
2016-10-26T09:08:35.074Z,21.99
2016-10-26T09:09:48.913Z,21.94
2016-10-26T09:11:02.690Z,22.07
2016-10-26T09:12:17.308Z,22.02
2016-10-26T09:13:30.102Z,21.96
2016-10-26T09:14:43.272Z,21.99
2016-10-26T09:15:55.938Z,22.12
2016-10-26T09:17:09.542Z,22.18
2016-10-26T09:18:22.159Z,22.15
2016-10-26T09:19:36.124Z,22.12
2016-10-26T09:20:48.638Z,22.15
2016-10-26T09:22:02.264Z,22.14
2016-10-26T09:23:15.355Z,22.18
2016-10-26T09:24:27.894Z,22.2
2016-10-26T09:25:40.389Z,22.24
2016-10-26T09:26:53.383Z,22.18
2016-10-26T09:28:05.846Z,22.26
2016-10-26T09:29:19.421Z,22.23
2016-10-26T09:30:32.075Z,22.27
2016-10-26T09:31:45.251Z,22.24
2016-10-26T09:32:58.371Z,22.24
2016-10-26T09:34:11.928Z,22.33
2016-10-26T09:35:25.529Z,22.38
2016-10-26T09:36:38.687Z,22.36
2016-10-26T09:37:52.217Z,22.41
2016-10-26T09:39:04.832Z,22.33
2016-10-26T09:40:18.351Z,22.48
2016-10-26T09:41:31.519Z,22.49
2016-10-26T09:42:44.492Z,22.44
2016-10-26T09:43:57.481Z,22.46
2016-10-26T09:45:10.656Z,22.46
2016-10-26T09:46:23.703Z,22.52
2016-10-26T09:47:36.838Z,22.52
2016-10-26T09:48:49.370Z,22.54
2016-10-26T09:50:02.921Z,22.61
2016-10-26T09:51:14.897Z,22.61
2016-10-26T09:52:28.651Z,22.59
2016-10-26T09:53:41.662Z,22.6
2016-10-26T09:54:54.477Z,22.6
2016-10-26T09:56:07.844Z,22.59
2016-10-26T09:57:21.071Z,22.55
2016-10-26T09:58:33.984Z,22.63
2016-10-26T09:59:47.083Z,22.7
2016-10-26T10:00:59.619Z,22.69
2016-10-26T10:02:11.018Z,22.66
2016-10-26T10:03:23.619Z,22.75
2016-10-26T10:04:35.621Z,22.82
2016-10-26T10:05:49.471Z,22.85
2016-10-26T10:07:02.663Z,22.86
2016-10-26T10:08:15.706Z,22.96
2016-10-26T10:09:28.820Z,22.91
2016-10-26T10:10:41.871Z,23
2016-10-26T10:11:54.346Z,23.06
2016-10-26T10:13:06.357Z,22.99
2016-10-26T10:14:19.492Z,23.03
2016-10-26T10:15:32.536Z,22.91
2016-10-26T10:16:43.944Z,22.96
2016-10-26T10:17:57.172Z,22.97
2016-10-26T10:19:11.195Z,22.96
2016-10-26T10:20:23.638Z,23.07
2016-10-26T10:21:36.063Z,23.12
2016-10-26T10:22:49.397Z,23.18
2016-10-26T10:24:02.883Z,23.26
2016-10-26T10:25:16.208Z,23.32
2016-10-26T10:26:30.139Z,23.32
2016-10-26T10:27:42.885Z,23.4
2016-10-26T10:28:56.223Z,23.4
2016-10-26T10:30:09.244Z,23.56
2016-10-26T10:31:22.901Z,23.53
2016-10-26T10:32:35.384Z,23.56
2016-10-26T10:33:47.862Z,23.63
2016-10-26T10:35:00.345Z,23.64
2016-10-26T10:36:12.964Z,23.77
2016-10-26T10:37:25.479Z,23.75
2016-10-26T10:38:38.934Z,23.87
2016-10-26T10:39:52.039Z,23.9
2016-10-26T10:41:04.040Z,23.99
2016-10-26T10:42:16.098Z,24.11
2016-10-26T10:43:28.671Z,24.15
2016-10-26T10:44:40.777Z,24.24
2016-10-26T10:45:53.623Z,24.27
2016-10-26T10:47:06.353Z,24.46
2016-10-26T10:48:19.393Z,24.49
2016-10-26T10:49:31.904Z,24.48
2016-10-26T10:50:43.916Z,24.46
2016-10-26T10:51:58.104Z,24.49
2016-10-26T10:53:10.654Z,24.59
2016-10-26T10:54:23.682Z,24.7
2016-10-26T10:55:36.419Z,24.74
2016-10-26T10:56:48.578Z,25
2016-10-26T10:58:01.734Z,25.02
2016-10-26T10:59:16.183Z,25.08
2016-10-26T11:00:28.706Z,25.01
2016-10-26T11:01:41.190Z,25.22
2016-10-26T11:02:53.680Z,25.23
2016-10-26T11:04:05.744Z,25.32
2016-10-26T11:05:18.239Z,25.33
2016-10-26T11:06:30.400Z,25.24
2016-10-26T11:07:43.021Z,25.27
2016-10-26T11:08:56.267Z,25.45
2016-10-26T11:10:09.250Z,25.52
2016-10-26T11:11:22.117Z,25.54
2016-10-26T11:12:35.655Z,25.67
2016-10-26T11:13:48.670Z,25.79
2016-10-26T11:15:01.681Z,26.01
2016-10-26T11:16:14.226Z,26.07
2016-10-26T11:17:27.366Z,26.15
2016-10-26T11:18:40.841Z,26.2
2016-10-26T11:19:52.880Z,26.34
2016-10-26T11:21:05.580Z,26.22
2016-10-26T11:22:17.590Z,26.2
2016-10-26T11:23:28.975Z,26.22
2016-10-26T11:24:41.996Z,26.19
2016-10-26T11:25:55.188Z,26.19
2016-10-26T11:27:07.404Z,26.16
2016-10-26T11:28:19.839Z,26.24
2016-10-26T11:29:32.345Z,26.3
2016-10-26T11:30:45.462Z,26.38
2016-10-26T11:31:57.479Z,26.41
2016-10-26T11:33:09.781Z,26.57
2016-10-26T11:34:23.366Z,26.52
2016-10-26T11:35:36.426Z,26.57
2016-10-26T11:36:50.071Z,26.5
2016-10-26T11:38:02.722Z,26.5
2016-10-26T11:39:16.297Z,26.47
2016-10-26T11:40:29.326Z,26.5
2016-10-26T11:41:42.498Z,26.53
2016-10-26T11:42:55.513Z,26.52
2016-10-26T11:44:08.492Z,26.41
2016-10-26T11:45:20.983Z,26.38
2016-10-26T11:46:34.006Z,26.34
2016-10-26T11:47:45.980Z,26.34
2016-10-26T11:48:58.826Z,26.32
2016-10-26T11:50:12.502Z,26.42
2016-10-26T11:51:24.479Z,26.41
2016-10-26T11:52:38.502Z,26.38
2016-10-26T11:53:51.393Z,26.34
2016-10-26T11:55:04.390Z,26.32
2016-10-26T11:56:18.156Z,26.42
2016-10-26T11:57:31.535Z,26.42
2016-10-26T11:58:43.498Z,26.38
2016-10-26T11:59:57.052Z,26.57
2016-10-26T12:01:10.062Z,26.57
2016-10-26T12:02:22.515Z,26.68
2016-10-26T12:03:34.574Z,26.68
2016-10-26T12:04:47.012Z,26.59
2016-10-26T12:06:00.056Z,26.74
2016-10-26T12:07:12.001Z,26.64
2016-10-26T12:08:24.100Z,26.75
2016-10-26T12:09:35.595Z,26.91
2016-10-26T12:10:48.731Z,27.08
2016-10-26T12:12:01.790Z,27.08
2016-10-26T12:13:13.848Z,27.15
2016-10-26T12:14:26.560Z,27.13
2016-10-26T12:15:38.569Z,27.16
2016-10-26T12:16:51.602Z,27.28
2016-10-26T12:18:04.100Z,27.46
2016-10-26T12:19:16.678Z,27.46
2016-10-26T12:20:30.869Z,27.55
2016-10-26T12:21:43.425Z,27.71
2016-10-26T12:22:56.468Z,27.79
2016-10-26T12:24:08.457Z,27.68
2016-10-26T12:25:21.631Z,27.79
2016-10-26T12:26:34.703Z,27.8
2016-10-26T12:27:46.378Z,27.84
2016-10-26T12:28:59.692Z,27.84
2016-10-26T12:30:13.617Z,27.76
2016-10-26T12:31:26.155Z,27.8
2016-10-26T12:32:38.640Z,27.74
2016-10-26T12:33:50.797Z,27.61
2016-10-26T12:35:03.838Z,27.59
2016-10-26T12:36:16.976Z,27.41
2016-10-26T12:37:29.482Z,27.52
2016-10-26T12:38:42.564Z,27.61
2016-10-26T12:39:55.580Z,27.74
2016-10-26T12:41:07.522Z,27.86
2016-10-26T12:42:20.212Z,28.02
2016-10-26T12:43:32.132Z,28.26
2016-10-26T12:44:45.653Z,28.43
2016-10-26T12:45:58.183Z,28.57
2016-10-26T12:47:12.984Z,28.63
2016-10-26T12:48:26.137Z,28.88
2016-10-26T12:49:38.405Z,28.98
2016-10-26T12:50:50.978Z,29.14
2016-10-26T12:52:09.674Z,29.14
2016-10-26T12:53:23.936Z,29.17
2016-10-26T12:54:36.994Z,29.13
2016-10-26T12:55:48.446Z,29.02
2016-10-26T12:57:01.034Z,28.88
2016-10-26T12:58:14.351Z,28.88
2016-10-26T12:59:26.829Z,28.78
2016-10-26T13:00:40.439Z,28.76
2016-10-26T13:01:53.634Z,28.76
2016-10-26T13:03:06.573Z,28.82
2016-10-26T13:04:20.530Z,28.97
2016-10-26T13:05:36.812Z,29.02
2016-10-26T13:06:49.683Z,28.86
2016-10-26T13:08:02.809Z,28.78
2016-10-26T13:09:16.013Z,28.83
2016-10-26T13:10:30.112Z,28.9
2016-10-26T13:11:45.336Z,29.01
2016-10-26T13:12:57.729Z,29.03
2016-10-26T13:14:11.295Z,29.02
2016-10-26T13:15:26.028Z,29.1
2016-10-26T13:16:39.669Z,29.1
2016-10-26T13:17:51.796Z,29.14
2016-10-26T13:19:04.426Z,29.4
2016-10-26T13:20:18.240Z,29.51
2016-10-26T13:21:32.439Z,29.6
2016-10-26T13:22:45.036Z,29.58
2016-10-26T13:23:58.433Z,29.65
2016-10-26T13:25:11.078Z,29.65
2016-10-26T13:26:24.071Z,29.81
2016-10-26T13:27:36.889Z,29.81
2016-10-26T13:28:49.074Z,29.85
2016-10-26T13:30:00.092Z,29.81
2016-10-26T13:31:12.561Z,29.91
2016-10-26T13:32:25.604Z,29.81
2016-10-26T13:33:39.708Z,29.89
2016-10-26T13:34:54.672Z,29.91
2016-10-26T13:36:06.981Z,30.14
2016-10-26T13:37:19.959Z,30.24
2016-10-26T13:38:32.320Z,30.1
2016-10-26T13:39:45.800Z,30.06
2016-10-26T13:41:00.180Z,29.94
2016-10-26T13:42:12.296Z,29.91
2016-10-26T13:43:25.281Z,30.02
2016-10-26T13:44:37.320Z,30.1
2016-10-26T13:45:48.882Z,30.21
2016-10-26T13:47:00.532Z,30.48
2016-10-26T13:48:14.133Z,30.54
2016-10-26T13:49:26.091Z,30.82
2016-10-26T13:50:38.610Z,31.06
2016-10-26T13:51:51.766Z,31.23
2016-10-26T13:53:04.277Z,31.06
2016-10-26T13:54:17.014Z,31
2016-10-26T13:55:31.352Z,31.18
2016-10-26T13:56:45.168Z,31.63
2016-10-26T13:57:57.763Z,31.77
2016-10-26T13:59:11.019Z,31.94
2016-10-26T14:00:24.711Z,32.23
2016-10-26T14:01:37.308Z,32.45
2016-10-26T14:02:50.470Z,32.57
2016-10-26T14:04:03.462Z,32.62
2016-10-26T14:05:15.932Z,32.42
2016-10-26T14:06:28.451Z,32.46
2016-10-26T14:07:40.445Z,32.47
2016-10-26T14:08:54.126Z,32.49
2016-10-26T14:10:07.647Z,32.72
2016-10-26T14:11:21.344Z,32.93
2016-10-26T14:12:34.457Z,33.09
2016-10-26T14:13:48.497Z,33.28
2016-10-26T14:15:02.064Z,33.34
2016-10-26T14:16:15.089Z,33.47
2016-10-26T14:17:27.654Z,33.5
2016-10-26T14:18:40.656Z,33.65
2016-10-26T14:19:53.701Z,33.77
2016-10-26T14:21:06.951Z,33.95
2016-10-26T14:22:20.424Z,34.08
2016-10-26T14:23:32.586Z,34.19
2016-10-26T14:24:45.881Z,34.26
2016-10-26T14:25:58.947Z,34.45
2016-10-26T14:27:11.948Z,34.51
2016-10-26T14:28:25.001Z,34.55
2016-10-26T14:29:38.667Z,34.69
2016-10-26T14:30:52.283Z,34.87
2016-10-26T14:32:05.546Z,34.87
2016-10-26T14:33:18.087Z,34.59
2016-10-26T14:34:30.656Z,34.41
2016-10-26T14:35:45.408Z,34.89
2016-10-26T14:36:59.609Z,35.31
2016-10-26T14:38:12.662Z,35.55
2016-10-26T14:39:25.849Z,36.06
2016-10-26T14:40:38.947Z,36.17
2016-10-26T14:41:51.683Z,36.09
2016-10-26T14:43:04.607Z,36.01
2016-10-26T14:44:17.116Z,36.04
2016-10-26T14:45:30.433Z,36.4
2016-10-26T14:46:42.518Z,36.7
2016-10-26T14:47:55.010Z,36.96
2016-10-26T14:49:08.098Z,36.97
2016-10-26T14:50:21.665Z,36.84
2016-10-26T14:51:34.933Z,37.07
2016-10-26T14:52:48.196Z,37.53
2016-10-26T14:54:01.849Z,38
2016-10-26T14:55:15.716Z,38.5
2016-10-26T14:56:28.376Z,39.04
2016-10-26T14:57:42.455Z,39.68
2016-10-26T14:58:55.490Z,39.74
2016-10-26T15:00:07.618Z,39.31
2016-10-26T15:01:20.423Z,38.71
2016-10-26T15:02:32.216Z,38.25
2016-10-26T15:03:45.816Z,37.99
2016-10-26T15:04:59.440Z,38.08
2016-10-26T15:06:12.513Z,38.06
2016-10-26T15:07:25.040Z,38.02
2016-10-26T15:08:37.713Z,38.13
2016-10-26T15:09:51.341Z,38.3
2016-10-26T15:11:04.923Z,38.54
2016-10-26T15:12:18.650Z,38.77
2016-10-26T15:13:31.138Z,39.33
2016-10-26T15:14:44.807Z,39.62
2016-10-26T15:15:56.746Z,39.57
2016-10-26T15:17:09.760Z,39.52
2016-10-26T15:18:22.763Z,39.41
2016-10-26T15:19:35.370Z,39.28
2016-10-26T15:20:48.389Z,39.08
2016-10-26T15:22:00.849Z,38.87
2016-10-26T15:23:13.334Z,38.61
2016-10-26T15:24:25.817Z,38.62
2016-10-26T15:25:38.493Z,38.47
2016-10-26T15:26:50.495Z,38.37
2016-10-26T15:28:04.133Z,38.27
2016-10-26T15:29:16.667Z,38.2
2016-10-26T15:30:29.222Z,38.36
2016-10-26T15:31:42.235Z,38.27
2016-10-26T15:32:55.280Z,38.54
2016-10-26T15:34:07.842Z,38.9
2016-10-26T15:35:20.969Z,39.42
2016-10-26T15:36:33.537Z,39.56
2016-10-26T15:37:47.125Z,39.27
2016-10-26T15:38:59.631Z,39.19
2016-10-26T15:40:12.166Z,39.04
2016-10-26T15:41:24.850Z,38.97
2016-10-26T15:42:38.433Z,38.68